Gimi Airstrip


Codes: AYGD/
Name: Gimi Airstrip
City: Amusa
Country: Papua New Guinea
Elevation: 5096 ft.

Photos at Gimi Airstrip


   Photos courtesy of SpottingLog. You can add your own sightings and photos by signing up for a free trial today.



No photos found.

Weather at Gimi Airstrip


Time (UTC)DescriptionTempratureWindCloud coverageVisibilityPressureHumidity
18-Apr-2024 00:00Light Rain19°C2 mph, NE100%10000m1013hPa91%
18-Apr-2024 03:00Moderate Rain20°C4 mph, S75%6986m1011hPa94%
18-Apr-2024 06:00Moderate Rain21°C2 mph, SE82%4665m1009hPa95%
18-Apr-2024 09:00Light Rain18°C0 mph, SE100%556m1012hPa99%
18-Apr-2024 12:00Light Rain18°C2 mph, N100%3959m1014hPa99%
18-Apr-2024 15:00Light Rain18°C2 mph, N100%4554m1013hPa99%
18-Apr-2024 18:00Light Rain17°C4 mph, N100%10000m1012hPa98%
18-Apr-2024 21:00Overcast Clouds17°C4 mph, N100%10000m1013hPa98%
19-Apr-2024 00:00Overcast Clouds25°C4 mph, NE100%10000m1012hPa62%
19-Apr-2024 03:00Light Rain28°C0 mph, SW33%10000m1008hPa52%
19-Apr-2024 06:00Moderate Rain23°C2 mph, SW57%10000m1008hPa85%
19-Apr-2024 09:00Light Rain19°C0 mph, S85%8388m1012hPa98%
19-Apr-2024 12:00Broken Clouds17°C2 mph, N84%10000m1014hPa98%
19-Apr-2024 15:00Light Rain17°C2 mph, N100%10000m1014hPa97%
19-Apr-2024 18:00Overcast Clouds16°C4 mph, N99%10000m1014hPa97%
19-Apr-2024 21:00Overcast Clouds16°C4 mph, N91%10000m1016hPa97%
20-Apr-2024 00:00Overcast Clouds25°C2 mph, SE91%10000m1013hPa55%
20-Apr-2024 03:00Overcast Clouds27°C4 mph, S100%10000m1009hPa51%
20-Apr-2024 06:00Light Rain21°C7 mph, SW98%6685m1010hPa94%
20-Apr-2024 09:00Light Rain19°C2 mph, SW99%4320m1013hPa100%
20-Apr-2024 12:00Light Rain19°C2 mph, NE100%10000m1014hPa98%
20-Apr-2024 15:00Light Rain18°C2 mph, NE100%10000m1013hPa97%
20-Apr-2024 18:00Light Rain17°C2 mph, N100%10000m1013hPa98%
20-Apr-2024 21:00Light Rain17°C2 mph, N99%10000m1015hPa97%
21-Apr-2024 00:00Overcast Clouds25°C2 mph, NE96%10000m1013hPa61%
21-Apr-2024 03:00Light Rain28°C2 mph, S93%10000m1009hPa48%
21-Apr-2024 06:00Light Rain24°C4 mph, SW95%10000m1008hPa78%
21-Apr-2024 09:00Light Rain20°C2 mph, SW100%9708m1012hPa99%
21-Apr-2024 12:00Light Rain19°C0 mph, NE100%10000m1014hPa97%
21-Apr-2024 15:00Light Rain18°C2 mph, NE99%10000m1013hPa98%
21-Apr-2024 18:00Overcast Clouds17°C4 mph, NE100%10000m1012hPa97%
21-Apr-2024 21:00Overcast Clouds17°C4 mph, N91%10000m1014hPa96%
22-Apr-2024 00:00Broken Clouds26°C2 mph, E61%10000m1012hPa55%
22-Apr-2024 03:00Light Rain27°C4 mph, SW43%10000m1008hPa56%
22-Apr-2024 06:00Light Rain23°C4 mph, S64%10000m1008hPa87%
22-Apr-2024 09:00Light Rain19°C0 mph, SE100%5602m1011hPa99%
22-Apr-2024 12:00Light Rain18°C4 mph, NE100%10000m1013hPa98%
22-Apr-2024 15:00Overcast Clouds17°C4 mph, N98%10000m1012hPa98%
22-Apr-2024 18:00Overcast Clouds16°C4 mph, N98%10000m1012hPa96%
22-Apr-2024 21:00Broken Clouds16°C4 mph, N82%10000m1014hPa93%